createdAt,value
2022-09-26T00:00:04.023Z,0.00
2022-09-26T00:01:03.902Z,0.00
2022-09-26T00:02:03.934Z,0.00
2022-09-26T00:03:03.871Z,0.00
2022-09-26T00:04:03.900Z,0.00
2022-09-26T00:05:03.954Z,0.00
2022-09-26T00:06:03.963Z,0.00
2022-09-26T00:07:04.289Z,0.00
2022-09-26T00:08:04.028Z,0.00
2022-09-26T00:09:04.049Z,0.00
2022-09-26T00:10:04.082Z,0.00
2022-09-26T00:11:04.121Z,0.00
2022-09-26T00:12:04.149Z,0.00
2022-09-26T00:13:04.175Z,0.00
2022-09-26T00:14:04.505Z,0.00
2022-09-26T00:15:04.236Z,0.00
2022-09-26T00:16:04.270Z,0.00
2022-09-26T00:17:04.338Z,0.00
2022-09-26T00:18:04.331Z,0.00
2022-09-26T00:19:04.365Z,0.00
2022-09-26T00:20:04.390Z,0.00
2022-09-26T00:21:04.693Z,0.00
2022-09-26T00:22:04.454Z,0.00
2022-09-26T00:23:04.489Z,0.00
2022-09-26T00:24:04.514Z,0.00
2022-09-26T00:25:04.546Z,0.00
2022-09-26T00:26:04.579Z,0.00
2022-09-26T00:27:04.605Z,0.00
2022-09-26T00:28:04.937Z,0.00
2022-09-26T00:29:04.677Z,0.00
2022-09-26T00:30:04.699Z,0.00
2022-09-26T00:31:04.836Z,0.00
2022-09-26T00:32:04.759Z,0.00
2022-09-26T00:33:04.797Z,0.00
2022-09-26T00:34:04.821Z,0.00
2022-09-26T00:35:05.152Z,0.00
2022-09-26T00:36:04.884Z,0.00
2022-09-26T00:37:04.983Z,0.00
2022-09-26T00:38:04.944Z,0.00
2022-09-26T00:39:05.092Z,0.00
2022-09-26T00:40:05.006Z,0.00
2022-09-26T00:41:05.039Z,0.00
2022-09-26T00:42:05.322Z,0.00
2022-09-26T00:43:05.103Z,0.00
2022-09-26T00:44:05.131Z,0.00
2022-09-26T00:45:05.174Z,0.00
2022-09-26T00:46:05.278Z,0.00
2022-09-26T00:47:05.219Z,0.00
2022-09-26T00:48:05.252Z,0.00
2022-09-26T00:49:05.626Z,0.00
2022-09-26T00:50:05.314Z,0.00
2022-09-26T00:51:05.351Z,0.00
2022-09-26T00:52:05.377Z,0.00
2022-09-26T00:53:05.427Z,0.00
2022-09-26T00:54:05.538Z,0.00
2022-09-26T00:55:05.475Z,0.00
2022-09-26T00:56:05.800Z,0.00
2022-09-26T00:57:05.532Z,0.00
2022-09-26T00:58:05.558Z,0.00
2022-09-26T00:59:05.618Z,0.00
2022-09-26T01:00:05.620Z,0.00
2022-09-26T01:01:05.800Z,0.00
2022-09-26T01:02:05.878Z,0.00
2022-09-26T01:03:06.015Z,0.00
2022-09-26T01:04:05.746Z,0.00
2022-09-26T01:05:05.791Z,0.00
2022-09-26T01:06:05.806Z,0.00
2022-09-26T01:07:05.839Z,0.00
2022-09-26T01:08:05.881Z,0.00
2022-09-26T01:09:05.990Z,0.00
2022-09-26T01:10:06.179Z,0.00
2022-09-26T01:11:05.957Z,0.00
2022-09-26T01:12:05.997Z,0.00
2022-09-26T01:13:06.020Z,0.00
2022-09-26T01:15:06.089Z,0.00
2022-09-26T01:16:06.123Z,0.00
2022-09-26T01:17:06.586Z,0.00
2022-09-26T01:18:06.176Z,0.00
2022-09-26T01:19:06.211Z,0.00
2022-09-26T01:20:06.242Z,0.00
2022-09-26T01:21:06.265Z,0.00
2022-09-26T01:22:06.305Z,0.00
2022-09-26T01:23:06.327Z,0.00
2022-09-26T01:24:06.621Z,0.00
2022-09-26T01:25:06.411Z,0.00
2022-09-26T01:26:06.432Z,0.00
2022-09-26T01:27:06.455Z,0.00
2022-09-26T01:28:06.484Z,0.00
2022-09-26T01:29:06.515Z,0.00
2022-09-26T01:30:06.542Z,0.00
2022-09-26T01:31:06.926Z,0.00
2022-09-26T01:32:06.611Z,0.00
2022-09-26T01:33:06.633Z,0.00
2022-09-26T01:34:06.665Z,0.00
2022-09-26T01:35:06.698Z,0.00
2022-09-26T01:36:06.734Z,0.00
2022-09-26T01:37:07.058Z,0.00
2022-09-26T01:38:06.801Z,0.00
2022-09-26T01:39:06.818Z,0.00
2022-09-26T01:40:06.860Z,0.00
2022-09-26T01:41:06.995Z,0.00
2022-09-26T01:42:06.913Z,0.00
2022-09-26T01:43:07.243Z,0.00
2022-09-26T01:44:06.978Z,0.00
2022-09-26T01:45:07.004Z,0.00
2022-09-26T01:46:07.206Z,0.00
2022-09-26T01:47:07.066Z,0.00
2022-09-26T01:48:07.098Z,0.00
2022-09-26T01:49:07.426Z,0.00
2022-09-26T01:50:07.156Z,0.00
2022-09-26T01:51:07.186Z,0.00
2022-09-26T01:52:07.226Z,0.00
2022-09-26T01:53:07.249Z,0.00
2022-09-26T01:54:07.279Z,0.00
2022-09-26T01:55:07.312Z,0.00
2022-09-26T01:56:07.594Z,0.00
2022-09-26T01:57:07.393Z,0.00
2022-09-26T01:58:07.401Z,0.00
2022-09-26T01:59:07.433Z,0.00
2022-09-26T02:00:07.476Z,0.00
2022-09-26T02:01:07.578Z,0.00
2022-09-26T02:02:07.583Z,0.00
2022-09-26T02:03:07.806Z,0.00
2022-09-26T02:04:07.592Z,0.00
2022-09-26T02:05:07.617Z,0.00
2022-09-26T02:06:07.649Z,0.00
2022-09-26T02:07:07.684Z,0.00
2022-09-26T02:08:07.718Z,0.00
2022-09-26T02:09:07.739Z,0.00
2022-09-26T02:11:08.105Z,0.00
2022-09-26T02:12:07.855Z,0.00
2022-09-26T02:13:07.887Z,0.00
2022-09-26T02:14:07.895Z,0.00
2022-09-26T02:15:07.931Z,0.00
2022-09-26T02:16:08.000Z,0.00
2022-09-26T02:17:07.990Z,0.00
2022-09-26T02:18:08.272Z,0.00
2022-09-26T02:19:08.050Z,0.00
2022-09-26T02:20:08.082Z,0.00
2022-09-26T02:21:08.116Z,0.00
2022-09-26T02:22:08.142Z,0.00
2022-09-26T02:23:08.176Z,0.00
2022-09-26T02:24:08.201Z,0.00
2022-09-26T02:25:08.486Z,0.00
2022-09-26T02:26:08.263Z,0.00
2022-09-26T02:27:08.295Z,0.00
2022-09-26T02:28:08.324Z,0.00
2022-09-26T02:29:08.481Z,0.00
2022-09-26T02:30:08.388Z,0.00
2022-09-26T02:31:08.431Z,0.00
2022-09-26T02:32:08.817Z,0.00
2022-09-26T02:33:08.478Z,0.00
2022-09-26T02:34:08.507Z,0.00
2022-09-26T02:35:08.538Z,0.00
2022-09-26T02:36:08.569Z,0.00
2022-09-26T02:37:08.605Z,0.00
2022-09-26T02:38:08.630Z,0.00
2022-09-26T02:39:09.036Z,0.00
2022-09-26T02:40:08.710Z,0.00
2022-09-26T02:41:08.735Z,0.00
2022-09-26T02:43:08.782Z,0.00
2022-09-26T02:44:08.834Z,0.00
2022-09-26T02:45:08.949Z,0.00
2022-09-26T02:46:09.234Z,0.00
2022-09-26T02:47:08.908Z,0.00
2022-09-26T02:48:08.945Z,0.00
2022-09-26T02:49:09.032Z,0.00
2022-09-26T02:50:08.997Z,0.00
2022-09-26T02:51:09.035Z,0.00
2022-09-26T02:52:09.066Z,0.00
2022-09-26T02:53:09.341Z,0.00
2022-09-26T02:54:09.117Z,0.00
2022-09-26T02:55:09.148Z,0.00
2022-09-26T02:56:09.187Z,0.00
2022-09-26T02:57:09.215Z,0.00
2022-09-26T02:58:09.240Z,0.00
2022-09-26T02:59:09.334Z,0.00
2022-09-26T03:00:09.559Z,0.00
2022-09-26T03:01:09.404Z,0.00
2022-09-26T03:02:09.365Z,0.00
2022-09-26T03:03:09.395Z,0.00
2022-09-26T03:04:09.434Z,0.00
2022-09-26T03:05:09.557Z,0.00
2022-09-26T03:06:09.493Z,0.00
2022-09-26T03:07:09.823Z,0.00
2022-09-26T03:08:09.550Z,0.00
2022-09-26T03:09:09.602Z,0.00
2022-09-26T03:10:09.608Z,0.00
2022-09-26T03:11:09.639Z,0.00
2022-09-26T03:12:09.678Z,0.00
2022-09-26T03:13:09.700Z,0.00
2022-09-26T03:14:09.983Z,0.00
2022-09-26T03:15:09.765Z,0.00
2022-09-26T03:16:09.856Z,0.00
2022-09-26T03:17:09.844Z,0.00
2022-09-26T03:18:09.859Z,0.00
2022-09-26T03:19:09.895Z,0.00
2022-09-26T03:20:09.916Z,0.00
2022-09-26T03:21:10.275Z,0.00
2022-09-26T03:22:09.976Z,0.00
2022-09-26T03:23:10.017Z,0.00
2022-09-26T03:24:10.039Z,0.00
2022-09-26T03:25:10.067Z,0.00
2022-09-26T03:26:10.102Z,0.00
2022-09-26T03:27:10.132Z,0.00
2022-09-26T03:28:10.412Z,0.00
2022-09-26T03:29:10.196Z,0.00
2022-09-26T03:30:10.228Z,0.00
2022-09-26T03:31:10.254Z,0.00
2022-09-26T03:32:10.432Z,0.00
2022-09-26T03:33:10.334Z,0.00
2022-09-26T03:34:10.344Z,0.00
2022-09-26T03:35:10.626Z,0.00
2022-09-26T03:36:10.407Z,0.00
2022-09-26T03:37:10.437Z,0.00
2022-09-26T03:38:14.271Z,0.00
2022-09-26T03:39:10.499Z,0.00
2022-09-26T03:40:10.563Z,0.00
2022-09-26T03:41:10.662Z,0.00
2022-09-26T03:42:10.887Z,0.00
2022-09-26T03:43:10.623Z,0.00
2022-09-26T03:44:10.649Z,0.00
2022-09-26T03:45:10.694Z,0.00
2022-09-26T03:46:10.808Z,0.00
2022-09-26T03:47:10.750Z,0.00
2022-09-26T03:48:11.074Z,0.00
2022-09-26T03:49:10.836Z,0.00
2022-09-26T03:50:10.834Z,0.00
2022-09-26T03:51:10.867Z,0.00
2022-09-26T03:52:10.899Z,0.00
2022-09-26T03:53:10.939Z,0.00
2022-09-26T03:54:11.206Z,0.00
2022-09-26T03:55:10.991Z,0.00
2022-09-26T03:56:11.021Z,0.00
2022-09-26T03:57:11.055Z,0.00
2022-09-26T03:58:11.081Z,0.00
2022-09-26T03:59:11.148Z,0.00
2022-09-26T04:00:11.391Z,0.00
2022-09-26T04:01:11.206Z,0.00
2022-09-26T04:02:11.272Z,0.00
2022-09-26T04:03:11.233Z,0.00
2022-09-26T04:04:11.261Z,0.00
2022-09-26T04:05:11.397Z,0.00
2022-09-26T04:06:11.321Z,0.00
2022-09-26T04:07:11.657Z,0.00
2022-09-26T04:08:11.397Z,0.00
2022-09-26T04:09:16.558Z,0.00
2022-09-26T04:10:11.454Z,0.00
2022-09-26T04:11:11.479Z,0.00
2022-09-26T04:12:11.507Z,0.00
2022-09-26T04:13:19.873Z,0.00
2022-09-26T04:14:11.568Z,0.00
2022-09-26T04:15:11.597Z,0.00
2022-09-26T04:16:11.665Z,0.00
2022-09-26T04:17:11.659Z,0.00
2022-09-26T04:18:11.690Z,0.00
2022-09-26T04:19:11.784Z,0.00
2022-09-26T04:20:12.001Z,0.00
2022-09-26T04:21:11.894Z,0.00
2022-09-26T04:22:11.818Z,0.00
2022-09-26T04:23:11.845Z,0.00
2022-09-26T04:24:12.174Z,0.00
2022-09-26T04:25:11.908Z,0.00
2022-09-26T04:26:11.934Z,0.00
2022-09-26T04:27:12.268Z,0.00
2022-09-26T04:28:11.998Z,0.00
2022-09-26T04:29:12.154Z,0.00
2022-09-26T04:30:12.057Z,0.00
2022-09-26T04:31:12.153Z,0.00
2022-09-26T04:32:12.144Z,0.00
2022-09-26T04:33:12.154Z,0.00
2022-09-26T04:34:12.481Z,0.00
2022-09-26T04:35:12.214Z,0.00
2022-09-26T04:36:12.249Z,0.00
2022-09-26T04:37:12.296Z,0.00
2022-09-26T04:38:12.302Z,0.00
2022-09-26T04:39:12.453Z,0.00
2022-09-26T04:40:12.502Z,0.00
2022-09-26T04:41:12.845Z,0.00
2022-09-26T04:42:12.426Z,0.00
2022-09-26T04:43:12.455Z,0.00
2022-09-26T04:44:12.486Z,0.00
2022-09-26T04:45:12.524Z,0.00
2022-09-26T04:46:14.930Z,0.00
2022-09-26T04:47:12.575Z,0.00
2022-09-26T04:48:12.859Z,0.00
2022-09-26T04:49:12.643Z,0.00
2022-09-26T04:50:12.675Z,0.00
2022-09-26T04:51:12.699Z,0.00
2022-09-26T04:52:12.734Z,0.00
2022-09-26T04:53:12.783Z,0.00
2022-09-26T04:54:12.814Z,0.00
2022-09-26T04:55:13.224Z,0.00
2022-09-26T04:56:12.853Z,0.00
2022-09-26T04:57:17.308Z,0.00
2022-09-26T04:58:12.910Z,0.00
2022-09-26T04:59:12.942Z,0.00
2022-09-26T05:00:12.987Z,0.00
2022-09-26T05:01:13.156Z,0.00
2022-09-26T05:02:13.345Z,4.00
2022-09-26T05:03:13.171Z,4.00
2022-09-26T05:04:13.103Z,4.00
2022-09-26T05:05:13.126Z,4.00
2022-09-26T05:06:13.159Z,4.00
2022-09-26T05:07:13.197Z,8.00
2022-09-26T05:08:13.218Z,4.00
2022-09-26T05:09:13.656Z,8.00
2022-09-26T05:10:13.280Z,12.00
2022-09-26T05:11:13.309Z,8.00
2022-09-26T05:12:13.351Z,8.00
2022-09-26T05:13:13.379Z,16.00
2022-09-26T05:14:13.402Z,16.00
2022-09-26T05:15:13.768Z,16.00
2022-09-26T05:16:13.497Z,20.00
2022-09-26T05:17:13.491Z,24.00
2022-09-26T05:18:13.523Z,24.00
2022-09-26T05:19:13.917Z,28.00
2022-09-26T05:20:13.582Z,32.00
2022-09-26T05:21:13.918Z,40.00
2022-09-26T05:22:13.645Z,44.00
2022-09-26T05:23:13.681Z,52.00
2022-09-26T05:24:13.714Z,60.00
2022-09-26T05:25:13.804Z,64.00
2022-09-26T05:26:13.770Z,72.00
2022-09-26T05:27:14.105Z,76.00
2022-09-26T05:28:13.841Z,84.00
2022-09-26T05:29:13.958Z,92.00
2022-09-26T05:30:13.953Z,96.00
2022-09-26T05:31:13.962Z,100.00
2022-09-26T05:32:13.950Z,104.00
2022-09-26T05:33:13.995Z,104.00
2022-09-26T05:34:19.279Z,108.00
2022-09-26T05:35:14.058Z,116.00
2022-09-26T05:36:14.077Z,124.00
2022-09-26T05:37:14.102Z,136.00
2022-09-26T05:38:14.132Z,152.00
2022-09-26T05:39:14.264Z,168.00
2022-09-26T05:40:14.270Z,180.00
2022-09-26T05:41:14.549Z,192.00
2022-09-26T05:42:14.255Z,212.00
2022-09-26T05:43:14.287Z,224.00
2022-09-26T05:44:14.325Z,240.00
2022-09-26T05:45:14.349Z,260.00
2022-09-26T05:46:14.439Z,272.00
2022-09-26T05:47:14.539Z,288.00
2022-09-26T05:48:14.694Z,308.00
2022-09-26T05:49:14.546Z,324.00
2022-09-26T05:50:14.503Z,344.00
2022-09-26T05:51:14.551Z,360.00
2022-09-26T05:52:14.563Z,376.00
2022-09-26T05:53:14.594Z,392.00
2022-09-26T05:54:14.621Z,412.00
2022-09-26T05:55:14.910Z,432.00
2022-09-26T05:56:18.501Z,444.00
2022-09-26T05:57:14.741Z,464.00
2022-09-26T05:58:14.750Z,484.00
2022-09-26T05:59:14.831Z,508.00
2022-09-26T06:00:14.805Z,524.00
2022-09-26T06:01:15.022Z,548.00
2022-09-26T06:02:19.974Z,572.00
2022-09-26T06:03:14.901Z,608.00
2022-09-26T06:04:14.929Z,640.00
2022-09-26T06:05:14.966Z,692.00
2022-09-26T06:06:15.013Z,728.00
2022-09-26T06:07:15.019Z,764.00
2022-09-26T06:08:15.054Z,808.00
2022-09-26T06:09:15.461Z,852.00
2022-09-26T06:10:15.115Z,904.00
2022-09-26T06:11:15.141Z,956.00
2022-09-26T06:12:15.173Z,1008.00
2022-09-26T06:13:15.479Z,1060.00
2022-09-26T06:14:15.229Z,1108.00
2022-09-26T06:15:15.324Z,1172.00
2022-09-26T06:16:15.616Z,1240.00
2022-09-26T06:17:15.332Z,1300.00
2022-09-26T06:18:15.351Z,1344.00
2022-09-26T06:19:17.474Z,1368.00
2022-09-26T06:20:15.417Z,1388.00
2022-09-26T06:21:15.451Z,1412.00
2022-09-26T06:22:15.575Z,1456.00
2022-09-26T06:23:15.807Z,1496.00
2022-09-26T06:24:15.537Z,1532.00
2022-09-26T06:25:15.572Z,1548.00
2022-09-26T06:26:15.600Z,1548.00
2022-09-26T06:27:15.629Z,1532.00
2022-09-26T06:28:15.657Z,1504.00
2022-09-26T06:29:15.987Z,1476.00
2022-09-26T06:30:15.971Z,1452.00
2022-09-26T06:31:15.828Z,1432.00
2022-09-26T06:32:15.785Z,1436.00
2022-09-26T06:33:15.815Z,1452.00
2022-09-26T06:34:15.841Z,1472.00
2022-09-26T06:35:15.881Z,1496.00
2022-09-26T06:36:15.913Z,1516.00
2022-09-26T06:37:16.186Z,1544.00
2022-09-26T06:38:15.965Z,1580.00
2022-09-26T06:39:16.221Z,1596.00
2022-09-26T06:40:16.114Z,1596.00
2022-09-26T06:41:16.061Z,1564.00
2022-09-26T06:42:16.093Z,1540.00
2022-09-26T06:43:16.123Z,1532.00
2022-09-26T06:44:16.461Z,1528.00
2022-09-26T06:45:16.207Z,1524.00
2022-09-26T06:46:16.426Z,1528.00
2022-09-26T06:47:16.341Z,1536.00
2022-09-26T06:48:18.886Z,1540.00
2022-09-26T06:49:16.406Z,1536.00
2022-09-26T06:50:16.447Z,1536.00
2022-09-26T06:51:16.617Z,1544.00
2022-09-26T06:52:16.396Z,1560.00
2022-09-26T06:53:16.444Z,1592.00
2022-09-26T06:54:16.460Z,1624.00
2022-09-26T06:55:16.492Z,1652.00
2022-09-26T06:56:16.518Z,1664.00
2022-09-26T06:57:16.551Z,1668.00
2022-09-26T06:58:16.833Z,1668.00
2022-09-26T06:59:16.728Z,1664.00
2022-09-26T07:00:16.762Z,1644.00
2022-09-26T07:01:16.986Z,1608.00
2022-09-26T07:02:16.816Z,1560.00
2022-09-26T07:03:16.748Z,1496.00
2022-09-26T07:04:17.073Z,1436.00
2022-09-26T07:05:16.796Z,1408.00
2022-09-26T07:06:16.824Z,1396.00
2022-09-26T07:07:16.877Z,1396.00
2022-09-26T07:08:16.889Z,1396.00
2022-09-26T07:09:17.391Z,1400.00
2022-09-26T07:10:17.251Z,1408.00
2022-09-26T07:12:17.013Z,1416.00
2022-09-26T07:13:17.043Z,1424.00
2022-09-26T07:14:17.086Z,1404.00
2022-09-26T07:15:17.106Z,1376.00
2022-09-26T07:16:17.486Z,1348.00
2022-09-26T07:17:17.167Z,1320.00
2022-09-26T07:18:17.231Z,1304.00
2022-09-26T07:19:17.232Z,1300.00
2022-09-26T07:20:17.263Z,1300.00
2022-09-26T07:21:17.295Z,1296.00
2022-09-26T07:22:17.325Z,1300.00
2022-09-26T07:23:17.606Z,1308.00
2022-09-26T07:24:17.401Z,1308.00
2022-09-26T07:25:17.414Z,1308.00
2022-09-26T07:26:17.450Z,1316.00
2022-09-26T07:27:17.484Z,1328.00
2022-09-26T07:28:18.154Z,1344.00
2022-09-26T07:29:17.540Z,1384.00
2022-09-26T07:30:17.821Z,1444.00
2022-09-26T07:31:17.658Z,1500.00
2022-09-26T07:32:17.658Z,1568.00
2022-09-26T07:33:17.664Z,1620.00
2022-09-26T07:34:18.720Z,1660.00
2022-09-26T07:35:17.728Z,1692.00
2022-09-26T07:36:17.759Z,1716.00
2022-09-26T07:37:18.037Z,1740.00
2022-09-26T07:38:17.817Z,1740.00
2022-09-26T07:39:17.858Z,1724.00
2022-09-26T07:40:17.926Z,1700.00
2022-09-26T07:41:17.914Z,1696.00
2022-09-26T07:42:17.940Z,1720.00
2022-09-26T07:43:21.195Z,1784.00
2022-09-26T07:45:08.665Z,1848.00
2022-09-26T07:45:27.775Z,1888.00
2022-09-26T07:46:18.081Z,1872.00
2022-09-26T07:47:18.096Z,1824.00
2022-09-26T07:48:18.132Z,1760.00
2022-09-26T07:49:18.157Z,1716.00
2022-09-26T07:50:18.261Z,1688.00
2022-09-26T07:51:18.486Z,1660.00
2022-09-26T07:52:18.256Z,1624.00
2022-09-26T07:53:18.287Z,1580.00
2022-09-26T07:54:18.314Z,1528.00
2022-09-26T07:55:18.345Z,1512.00
2022-09-26T07:56:18.376Z,1540.00
2022-09-26T07:57:18.406Z,1560.00
2022-09-26T07:58:18.688Z,1540.00
2022-09-26T07:59:18.474Z,1460.00
2022-09-26T08:00:18.504Z,1396.00
2022-09-26T08:01:18.630Z,1384.00
2022-09-26T08:02:18.685Z,1392.00
2022-09-26T08:03:18.655Z,1452.00
2022-09-26T08:04:18.632Z,1552.00
2022-09-26T08:05:18.954Z,1632.00
2022-09-26T08:06:18.738Z,1664.00
2022-09-26T08:07:18.714Z,1672.00
2022-09-26T08:08:18.752Z,1644.00
2022-09-26T08:09:18.778Z,1576.00
2022-09-26T08:10:18.812Z,1508.00
2022-09-26T08:11:18.842Z,1476.00
2022-09-26T08:12:19.126Z,1436.00
2022-09-26T08:13:18.906Z,1428.00
2022-09-26T08:14:18.943Z,1392.00
2022-09-26T08:15:18.968Z,1312.00
2022-09-26T08:16:19.250Z,1228.00
2022-09-26T08:17:19.027Z,1192.00
2022-09-26T08:18:19.079Z,1144.00
2022-09-26T08:19:19.351Z,1112.00
2022-09-26T08:20:19.126Z,1080.00
2022-09-26T08:21:19.154Z,1028.00
2022-09-26T08:22:19.204Z,1012.00
2022-09-26T08:23:19.214Z,1032.00
2022-09-26T08:24:19.244Z,1036.00
2022-09-26T08:25:19.278Z,1024.00
2022-09-26T08:26:19.567Z,1016.00
2022-09-26T08:27:19.341Z,1056.00
2022-09-26T08:28:19.385Z,1112.00
2022-09-26T08:29:19.422Z,1176.00
2022-09-26T08:30:19.544Z,1252.00
2022-09-26T08:31:19.492Z,1344.00
2022-09-26T08:32:19.494Z,1416.00
2022-09-26T08:33:19.776Z,1420.00
2022-09-26T08:34:24.787Z,1444.00
2022-09-26T08:35:19.590Z,1420.00
2022-09-26T08:36:19.619Z,1396.00
2022-09-26T08:37:19.653Z,1400.00
2022-09-26T08:38:19.725Z,1456.00
2022-09-26T08:39:19.712Z,1428.00
2022-09-26T08:40:20.178Z,1364.00
2022-09-26T08:41:19.812Z,1284.00
2022-09-26T08:42:19.803Z,1248.00
2022-09-26T08:43:19.953Z,1244.00
2022-09-26T08:44:19.870Z,1204.00
2022-09-26T08:45:19.902Z,1160.00
2022-09-26T08:46:20.048Z,1188.00
2022-09-26T08:47:20.220Z,1232.00
2022-09-26T08:48:19.996Z,1304.00
2022-09-26T08:49:20.020Z,1424.00
2022-09-26T08:50:20.052Z,1624.00
2022-09-26T08:51:20.093Z,1812.00
2022-09-26T08:52:20.119Z,1932.00
2022-09-26T08:53:20.401Z,2076.00
2022-09-26T08:54:20.212Z,2148.00
2022-09-26T08:55:20.247Z,2168.00
2022-09-26T08:56:20.248Z,2148.00
2022-09-26T08:57:20.268Z,2100.00
2022-09-26T08:58:21.684Z,2008.00
2022-09-26T08:59:20.634Z,1960.00
2022-09-26T09:00:20.516Z,1984.00
2022-09-26T09:01:20.445Z,2120.00
2022-09-26T09:02:20.622Z,2296.00
2022-09-26T09:03:20.460Z,2448.00
2022-09-26T09:04:20.490Z,2416.00
2022-09-26T09:05:20.782Z,2416.00
2022-09-26T09:06:20.554Z,2452.00
2022-09-26T09:07:20.582Z,2540.00
2022-09-26T09:09:20.649Z,2820.00
2022-09-26T09:10:20.700Z,2824.00
2022-09-26T09:11:20.712Z,2768.00
2022-09-26T09:12:24.296Z,2708.00
2022-09-26T09:13:20.775Z,2596.00
2022-09-26T09:14:20.798Z,2396.00
2022-09-26T09:15:25.584Z,2192.00
2022-09-26T09:16:20.942Z,2092.00
2022-09-26T09:17:20.899Z,2016.00
2022-09-26T09:18:20.925Z,1992.00
2022-09-26T09:19:21.218Z,1932.00
2022-09-26T09:20:21.013Z,1964.00
2022-09-26T09:21:21.027Z,2068.00
2022-09-26T09:22:21.056Z,2132.00
2022-09-26T09:23:21.088Z,2084.00
2022-09-26T09:24:21.114Z,2016.00
2022-09-26T09:25:21.184Z,1992.00
2022-09-26T09:28:21.238Z,1988.00
2022-09-26T09:29:21.275Z,2100.00
2022-09-26T09:30:21.300Z,2092.00
2022-09-26T09:31:21.367Z,2116.00
2022-09-26T09:32:21.380Z,2144.00
2022-09-26T09:33:21.655Z,2052.00
2022-09-26T09:34:21.427Z,1972.00
2022-09-26T09:35:21.460Z,1980.00
2022-09-26T09:36:21.489Z,1980.00
2022-09-26T09:37:21.526Z,1884.00
2022-09-26T09:38:21.557Z,1960.00
2022-09-26T09:39:21.591Z,1984.00
2022-09-26T09:40:21.913Z,1840.00
2022-09-26T09:41:21.646Z,2004.00
2022-09-26T09:42:21.732Z,2016.00
2022-09-26T09:43:21.708Z,2040.00
2022-09-26T09:44:21.745Z,2020.00
2022-09-26T09:45:21.771Z,2008.00
2022-09-26T09:46:21.847Z,2064.00
2022-09-26T09:47:22.874Z,2312.00
2022-09-26T09:48:21.866Z,2480.00
2022-09-26T09:49:21.899Z,2604.00
2022-09-26T09:50:21.936Z,2988.00
2022-09-26T09:51:21.959Z,3152.00
2022-09-26T09:52:21.991Z,3448.00
2022-09-26T09:53:22.028Z,3808.00
2022-09-26T09:54:22.360Z,4056.00
2022-09-26T09:55:22.088Z,4152.00
2022-09-26T09:56:22.117Z,4056.00
2022-09-26T09:57:22.153Z,3852.00
2022-09-26T09:58:22.200Z,3660.00
2022-09-26T09:59:22.209Z,3744.00
2022-09-26T10:00:22.250Z,4140.00
2022-09-26T10:01:22.577Z,4180.00
2022-09-26T10:02:22.376Z,4028.00
2022-09-26T10:03:22.454Z,3956.00
2022-09-26T10:04:22.366Z,3800.00
2022-09-26T10:05:22.397Z,3636.00
2022-09-26T10:06:45.564Z,3492.00
2022-09-26T10:07:22.718Z,3348.00
2022-09-26T10:08:22.505Z,3172.00
2022-09-26T10:09:38.845Z,2956.00
2022-09-26T10:10:22.556Z,2768.00
2022-09-26T10:11:22.588Z,2576.00
2022-09-26T10:12:22.627Z,2540.00
2022-09-26T10:13:22.949Z,2728.00
2022-09-26T10:14:22.706Z,2916.00
2022-09-26T10:15:22.714Z,3052.00
2022-09-26T10:16:22.907Z,3184.00
2022-09-26T10:17:22.776Z,3532.00
2022-09-26T10:18:25.391Z,3776.00
2022-09-26T10:19:23.091Z,3756.00
2022-09-26T10:20:22.872Z,3528.00
2022-09-26T10:21:22.924Z,3388.00
2022-09-26T10:22:22.932Z,3420.00
2022-09-26T10:24:22.996Z,3440.00
2022-09-26T10:25:23.337Z,3512.00
2022-09-26T10:26:25.560Z,3636.00
2022-09-26T10:27:23.101Z,3652.00
2022-09-26T10:28:23.128Z,3668.00
2022-09-26T10:29:23.154Z,3568.00
2022-09-26T10:30:23.215Z,3308.00
2022-09-26T10:31:23.279Z,3024.00
2022-09-26T10:32:23.508Z,2904.00
2022-09-26T10:33:23.284Z,2956.00
2022-09-26T10:34:23.319Z,3128.00
2022-09-26T10:36:23.404Z,3564.00
2022-09-26T10:37:23.413Z,3740.00
2022-09-26T10:38:23.438Z,3828.00
2022-09-26T10:39:23.726Z,3864.00
2022-09-26T10:40:23.524Z,3828.00
2022-09-26T10:41:23.535Z,3816.00
2022-09-26T10:42:23.567Z,4004.00
2022-09-26T10:43:23.631Z,4216.00
2022-09-26T10:44:23.633Z,4480.00
2022-09-26T10:45:23.664Z,4600.00
2022-09-26T10:46:24.071Z,4656.00
2022-09-26T10:47:23.725Z,4776.00
2022-09-26T10:48:23.757Z,4844.00
2022-09-26T10:49:23.812Z,4828.00
2022-09-26T10:50:23.917Z,4684.00
2022-09-26T10:51:23.859Z,4452.00
2022-09-26T10:52:23.887Z,4216.00
2022-09-26T10:53:24.172Z,4068.00
2022-09-26T10:54:23.947Z,4016.00
2022-09-26T10:55:23.978Z,3960.00
2022-09-26T10:56:24.007Z,3916.00
2022-09-26T10:57:24.041Z,3956.00
2022-09-26T10:58:24.077Z,4040.00
2022-09-26T10:59:24.109Z,4136.00
2022-09-26T11:00:24.444Z,4148.00
2022-09-26T11:01:24.229Z,4060.00
2022-09-26T11:02:24.223Z,3908.00
2022-09-26T11:03:24.275Z,3796.00
2022-09-26T11:04:24.268Z,3784.00
2022-09-26T11:06:24.377Z,3868.00
2022-09-26T11:07:24.659Z,3964.00
2022-09-26T11:08:24.401Z,4112.00
2022-09-26T11:09:24.425Z,4288.00
2022-09-26T11:10:24.456Z,4460.00
2022-09-26T11:11:24.494Z,4632.00
2022-09-26T11:12:24.525Z,4784.00
2022-09-26T11:13:24.560Z,4912.00
2022-09-26T11:14:28.106Z,5024.00
2022-09-26T11:15:24.619Z,5164.00
2022-09-26T11:16:24.748Z,5292.00
2022-09-26T11:17:24.677Z,5332.00
2022-09-26T11:18:24.795Z,5316.00
2022-09-26T11:19:24.740Z,5336.00
2022-09-26T11:20:24.774Z,5368.00
2022-09-26T11:21:29.260Z,5420.00
2022-09-26T11:22:24.844Z,5448.00
2022-09-26T11:23:24.933Z,5404.00
2022-09-26T11:24:24.906Z,5320.00
2022-09-26T11:25:24.935Z,5192.00
2022-09-26T11:26:24.969Z,4996.00
2022-09-26T11:27:25.002Z,4800.00
2022-09-26T11:28:25.287Z,4656.00
2022-09-26T11:29:25.062Z,4548.00
2022-09-26T11:30:25.100Z,4428.00
2022-09-26T11:31:25.197Z,4300.00
2022-09-26T11:32:25.169Z,4188.00
2022-09-26T11:33:25.193Z,4096.00
2022-09-26T11:34:25.254Z,4000.00
2022-09-26T11:35:25.566Z,3916.00
2022-09-26T11:36:25.293Z,3876.00
2022-09-26T11:37:25.353Z,3856.00
2022-09-26T11:38:25.354Z,3836.00
2022-09-26T11:39:26.838Z,3840.00
2022-09-26T11:40:25.670Z,3908.00
2022-09-26T11:41:25.462Z,3972.00
2022-09-26T11:42:25.741Z,3976.00
2022-09-26T11:43:25.519Z,3924.00
2022-09-26T11:44:25.548Z,3828.00
2022-09-26T11:45:25.631Z,3724.00
2022-09-26T11:46:25.665Z,3668.00
2022-09-26T11:47:25.652Z,3616.00
2022-09-26T11:48:25.681Z,3572.00
2022-09-26T11:49:25.972Z,3564.00
2022-09-26T11:50:25.771Z,3596.00
2022-09-26T11:51:25.773Z,3648.00
2022-09-26T11:52:25.822Z,3688.00
2022-09-26T11:53:25.842Z,3704.00
2022-09-26T11:54:25.876Z,3712.00
2022-09-26T11:55:25.901Z,3720.00
2022-09-26T11:56:26.252Z,3700.00
2022-09-26T11:57:25.975Z,3632.00
2022-09-26T11:58:26.010Z,3524.00
2022-09-26T11:59:26.038Z,3424.00
2022-09-26T12:00:26.065Z,3348.00
2022-09-26T12:01:26.099Z,3268.00
2022-09-26T12:02:26.453Z,3200.00
2022-09-26T12:03:26.333Z,3148.00
2022-09-26T12:04:26.193Z,3072.00
2022-09-26T12:05:27.503Z,2988.00
2022-09-26T12:06:26.303Z,2900.00
2022-09-26T12:07:26.294Z,2836.00
2022-09-26T12:08:26.623Z,2880.00
2022-09-26T12:09:26.371Z,3020.00
2022-09-26T12:10:26.393Z,3188.00
2022-09-26T12:11:26.426Z,3280.00
2022-09-26T12:12:26.460Z,3208.00
2022-09-26T12:13:26.493Z,2960.00
2022-09-26T12:14:26.816Z,2668.00
2022-09-26T12:15:26.554Z,2572.00
2022-09-26T12:16:26.688Z,2588.00
2022-09-26T12:17:26.619Z,2556.00
2022-09-26T12:18:26.649Z,2512.00
2022-09-26T12:19:26.689Z,2452.00
2022-09-26T12:20:26.714Z,2384.00
2022-09-26T12:21:27.409Z,2340.00
2022-09-26T12:22:26.803Z,2260.00
2022-09-26T12:23:26.819Z,2224.00
2022-09-26T12:24:26.901Z,2228.00
2022-09-26T12:25:26.876Z,2216.00
2022-09-26T12:26:26.923Z,2260.00
2022-09-26T12:27:26.947Z,2316.00
2022-09-26T12:28:27.274Z,2400.00
2022-09-26T12:29:27.006Z,2604.00
2022-09-26T12:30:27.037Z,2852.00
2022-09-26T12:31:27.208Z,2888.00
2022-09-26T12:32:27.102Z,2808.00
2022-09-26T12:33:27.134Z,2724.00
2022-09-26T12:34:27.162Z,2596.00
2022-09-26T12:35:27.505Z,2416.00
2022-09-26T12:36:27.231Z,2200.00
2022-09-26T12:37:27.262Z,1984.00
2022-09-26T12:38:27.318Z,1916.00
2022-09-26T12:39:27.329Z,1860.00
2022-09-26T12:40:27.471Z,1732.00
2022-09-26T12:41:27.396Z,1556.00
2022-09-26T12:42:27.677Z,1352.00
2022-09-26T12:43:27.459Z,1240.00
2022-09-26T12:44:27.490Z,1164.00
2022-09-26T12:45:27.522Z,1128.00
2022-09-26T12:46:27.673Z,1116.00